Time;durP1;ratioP1;P1;durP2;ratioP2;P2;SDS_P1;SDS_P2;PMS_P1;PMS_P2;Temp;Humidity;BMP_temperature;BMP_pressure;BME280_temperature;BME280_humidity;BME280_pressure;Samples;Min_cycle;Max_cycle;Signal;HPM_P1;HPM_P2
2022/03/29 00:01:12;;;;;;;11.68;7.65;;;;;;;8.93;65.34;101519.28;5076143;28;20055;-89
2022/03/29 00:03:37;;;;;;;11.98;7.32;;;;;;;8.91;66.24;101517.78;5092805;28;20130;-88
2022/03/29 00:06:03;;;;;;;13.38;7.22;;;;;;;8.88;66.52;101516.28;5076413;28;20520;-89
2022/03/29 00:08:28;;;;;;;11.25;7.07;;;;;;;8.84;66.80;101509.53;5093186;28;20044;-88
2022/03/29 00:10:54;;;;;;;12.98;7.75;;;;;;;8.80;66.03;101508.25;5092792;28;20024;-88
2022/03/29 00:13:19;;;;;;;12.32;7.70;;;;;;;8.79;66.67;101509.28;5076088;28;20039;-88
2022/03/29 00:15:45;;;;;;;13.10;8.10;;;;;;;8.76;66.73;101507.78;5093039;28;20488;-88
2022/03/29 00:18:10;;;;;;;11.30;7.80;;;;;;;8.74;67.42;101506.28;5110127;28;20096;-88
2022/03/29 00:20:36;;;;;;;12.95;8.10;;;;;;;8.69;67.56;101509.56;5093132;28;20081;-89
2022/03/29 00:23:01;;;;;;;13.45;7.82;;;;;;;8.66;67.97;101506.41;5093001;28;20470;-88
2022/03/29 00:25:27;;;;;;;12.32;8.05;;;;;;;8.61;67.62;101506.97;5093115;28;20059;-89
2022/03/29 00:27:52;;;;;;;12.13;8.05;;;;;;;8.56;68.30;101501.25;5093137;28;20038;-88
2022/03/29 00:30:20;;;;;;;12.95;8.05;;;;;;;8.53;67.96;101505.19;5109893;28;20028;-88
2022/03/29 00:32:46;;;;;;;12.90;7.93;;;;;;;8.50;68.73;101491.19;5092609;28;20472;-88
2022/03/29 00:35:12;;;;;;;12.40;7.72;;;;;;;8.47;69.53;101494.25;5092706;28;20031;-88
2022/03/29 00:37:39;;;;;;;10.70;7.68;;;;;;;8.42;69.64;101483.97;5110132;28;20042;-88
2022/03/29 00:40:06;;;;;;;14.57;9.45;;;;;;;8.39;69.53;101487.88;5097181;28;20087;-87
2022/03/29 00:42:32;;;;;;;13.65;9.40;;;;;;;8.36;69.63;101476.63;5096402;28;20038;-88
2022/03/29 00:44:57;;;;;;;16.23;10.38;;;;;;;8.35;69.61;101485.75;5079634;28;20039;-88
2022/03/29 00:47:23;;;;;;;13.57;9.82;;;;;;;8.31;69.49;101485.28;5079497;28;20024;-88
2022/03/29 00:49:49;;;;;;;15.63;10.38;;;;;;;8.29;70.26;101476.50;5079202;28;20020;-88
2022/03/29 00:52:15;;;;;;;14.13;9.55;;;;;;;8.26;70.13;101466.06;5096448;28;20122;-88
2022/03/29 00:54:41;;;;;;;15.25;9.68;;;;;;;8.23;70.54;101458.31;5097333;28;20035;-88
2022/03/29 00:57:11;;;;;;;14.55;8.85;;;;;;;8.21;69.10;101466.63;5096344;28;20073;-88
2022/03/29 00:59:38;;;;;;;15.82;10.68;;;;;;;8.20;70.77;101461.41;5096105;28;20521;-87
2022/03/29 01:02:07;;;;;;;14.48;10.05;;;;;;;8.17;70.82;101457.19;5078990;28;20073;-88
2022/03/29 01:04:33;;;;;;;15.30;9.82;;;;;;;8.15;71.32;101456.53;5095650;28;20016;-88
2022/03/29 01:06:59;;;;;;;16.38;9.90;;;;;;;8.16;70.93;101446.56;5096012;28;20069;-88
2022/03/29 01:09:29;;;;;;;16.60;10.48;;;;;;;8.13;70.06;101453.16;5095399;28;20048;-88
2022/03/29 01:11:56;;;;;;;14.57;10.00;;;;;;;8.12;71.20;101448.81;5095275;28;20135;-88
2022/03/29 01:14:23;;;;;;;13.63;9.82;;;;;;;8.11;71.69;101449.81;5095757;28;20032;-88
2022/03/29 01:19:36;;;;;;;18.23;11.15;;;;;;;8.06;71.79;101436.00;5097166;28;20042;-88
2022/03/29 01:22:07;;;;;;;15.82;11.32;;;;;;;8.04;71.59;101446.16;5096462;28;20027;-88
2022/03/29 01:24:36;;;;;;;15.90;11.35;;;;;;;8.02;71.30;101440.13;5095847;28;20457;-87
2022/03/29 01:27:04;;;;;;;17.45;11.45;;;;;;;8.01;71.48;101449.25;5095155;28;20028;-87
2022/03/29 01:29:30;;;;;;;17.13;11.50;;;;;;;7.99;72.13;101445.91;5112374;28;20051;-87
2022/03/29 01:32:03;;;;;;;18.90;12.02;;;;;;;7.97;71.26;101445.22;5112458;28;20024;-88
2022/03/29 01:34:30;;;;;;;15.23;11.35;;;;;;;7.92;72.29;101434.16;5095412;28;20031;-88
2022/03/29 01:36:56;;;;;;;17.80;11.48;;;;;;;7.90;72.70;101437.03;5096275;28;20032;-88
2022/03/29 01:39:21;;;;;;;17.85;12.05;;;;;;;7.88;72.90;101439.91;5078617;28;20119;-88
2022/03/29 01:41:47;;;;;;;17.13;12.25;;;;;;;7.87;73.11;101440.09;5112558;28;20139;-88
2022/03/29 01:44:13;;;;;;;16.02;10.90;;;;;;;7.85;72.89;101431.31;5095400;28;20081;-88
2022/03/29 01:46:39;;;;;;;16.00;11.80;;;;;;;7.83;73.02;101426.09;5112488;28;20024;-88
2022/03/29 01:49:10;;;;;;;16.50;11.27;;;;;;;7.79;73.43;101427.47;5094354;28;20428;-88
2022/03/29 01:51:35;;;;;;;16.42;11.77;;;;;;;7.77;73.18;101426.84;5094978;28;20412;-88
2022/03/29 01:54:02;;;;;;;16.73;11.57;;;;;;;7.78;73.85;101422.25;5096228;28;20525;-88
2022/03/29 01:56:29;;;;;;;16.98;11.73;;;;;;;7.79;73.44;101427.47;5094992;28;20102;-88
2022/03/29 01:59:03;;;;;;;18.38;12.40;;;;;;;7.81;72.97;101421.91;5078548;28;20036;-89
2022/03/29 02:01:28;;;;;;;16.63;12.25;;;;;;;7.78;74.10;101408.75;5112687;28;20041;-88
2022/03/29 02:03:54;;;;;;;16.92;12.05;;;;;;;7.76;73.63;101403.53;5094535;28;20037;-88
2022/03/29 02:06:20;;;;;;;17.75;12.38;;;;;;;7.78;73.40;101409.63;5094431;28;20467;-88
2022/03/29 02:08:45;;;;;;;17.30;12.43;;;;;;;7.76;74.13;101400.84;5094260;28;20478;-88
2022/03/29 02:11:11;;;;;;;16.95;12.00;;;;;;;7.76;74.04;101400.84;5094717;28;20027;-88
2022/03/29 02:13:38;;;;;;;16.55;11.82;;;;;;;7.75;74.11;101399.19;5095191;28;20444;-88
2022/03/29 02:16:04;;;;;;;18.58;12.98;;;;;;;7.73;74.07;101393.94;5095344;28;20032;-88
2022/03/29 02:18:29;;;;;;;18.27;13.70;;;;;;;7.72;73.73;101394.97;5094055;28;20069;-88
2022/03/29 02:20:55;;;;;;;18.88;13.40;;;;;;;7.69;74.30;101395.34;5094709;28;20032;-88
2022/03/29 02:23:20;;;;;;;17.45;12.52;;;;;;;7.69;73.04;101394.47;5077710;28;20059;-88
2022/03/29 02:25:46;;;;;;;19.00;13.98;;;;;;;7.67;74.40;101386.56;5094421;28;20482;-88
2022/03/29 02:28:12;;;;;;;17.90;13.05;;;;;;;7.65;74.40;101383.22;5094426;28;20028;-88
2022/03/29 02:30:37;;;;;;;19.40;13.45;;;;;;;7.64;74.85;101373.44;5094217;28;20051;-88
2022/03/29 02:33:04;;;;;;;18.83;14.20;;;;;;;7.65;74.39;101372.41;5111001;28;20028;-88
2022/03/29 02:35:29;;;;;;;19.25;13.75;;;;;;;7.68;74.89;101365.81;5111120;28;20067;-87
2022/03/29 02:37:55;;;;;;;18.45;13.60;;;;;;;7.68;74.85;101363.13;5094182;28;20066;-88
2022/03/29 02:40:20;;;;;;;21.80;15.02;;;;;;;7.70;74.82;101366.47;5076919;28;20104;-88
2022/03/29 02:42:53;;;;;;;20.80;14.52;;;;;;;7.71;73.36;101366.28;5077064;28;20043;-88
2022/03/29 02:45:21;;;;;;;19.25;14.82;;;;;;;7.71;74.40;101366.28;5094905;28;20433;-88
2022/03/29 02:47:51;;;;;;;18.92;14.10;;;;;;;7.71;74.97;101360.88;5093813;28;20543;-88
2022/03/29 02:50:18;;;;;;;21.40;15.13;;;;;;;7.73;74.33;101349.88;5094880;28;20035;-88
2022/03/29 02:52:53;;;;;;;19.25;13.63;;;;;;;7.71;74.46;101350.06;5110808;28;20023;-88
2022/03/29 02:55:22;;;;;;;19.50;13.88;;;;;;;7.70;75.30;101342.16;5094293;28;20055;-88
2022/03/29 02:57:48;;;;;;;20.38;15.23;;;;;;;7.70;75.40;101342.97;5111051;28;20452;-88
2022/03/29 03:00:16;;;;;;;18.70;13.50;;;;;;;7.69;75.29;101341.31;5093826;28;20460;-88
2022/03/29 03:02:50;;;;;;;18.73;14.07;;;;;;;7.69;74.04;101337.75;5093967;28;20020;-88
2022/03/29 03:05:16;;;;;;;20.92;15.10;;;;;;;7.68;75.35;101338.81;5094654;28;20448;-89
2022/03/29 03:07:44;;;;;;;20.48;15.38;;;;;;;7.66;75.68;101328.19;5093256;28;20503;-88
2022/03/29 03:10:11;;;;;;;20.13;14.63;;;;;;;7.62;76.37;101329.56;5110591;28;20020;-88
2022/03/29 03:12:42;;;;;;;19.83;14.75;;;;;;;7.61;76.02;101336.00;5076615;28;20028;-88
2022/03/29 03:15:09;;;;;;;18.63;14.05;;;;;;;7.61;76.59;101327.06;5093776;28;20476;-88
2022/03/29 03:17:35;;;;;;;19.85;14.43;;;;;;;7.59;76.40;101324.53;5093529;28;20077;-88
2022/03/29 03:20:01;;;;;;;21.58;15.85;;;;;;;7.63;75.91;101327.69;5094337;28;20368;-88
2022/03/29 03:22:26;;;;;;;20.58;15.85;;;;;;;7.63;76.53;101320.47;5093342;28;20504;-88
2022/03/29 03:24:52;;;;;;;23.75;17.55;;;;;;;7.67;74.45;101318.22;5077329;28;20028;-87
2022/03/29 03:27:18;;;;;;;23.85;17.23;;;;;;;7.69;74.84;101317.00;5076543;28;20043;-88
2022/03/29 03:29:46;;;;;;;22.75;17.15;;;;;;;7.69;76.17;101311.63;5093286;28;20055;-88
2022/03/29 03:32:12;;;;;;;20.30;15.38;;;;;;;7.65;76.51;101321.09;5110245;28;20043;-87
2022/03/29 03:34:38;;;;;;;18.95;13.95;;;;;;;7.61;76.84;101313.56;5093121;28;20039;-87
2022/03/29 03:37:04;;;;;;;23.63;17.67;;;;;;;7.60;77.79;101314.56;5094389;28;20019;-88
2022/03/29 03:39:32;;;;;;;23.05;17.08;;;;;;;7.58;75.69;101313.94;5094324;28;20444;-88
2022/03/29 03:41:58;;;;;;;24.00;18.08;;;;;;;7.59;75.09;101308.34;5092980;28;20024;-88
2022/03/29 03:44:23;;;;;;;23.67;18.50;;;;;;;7.56;76.87;101311.41;5093511;28;20031;-88
2022/03/29 03:46:49;;;;;;;23.02;17.88;;;;;;;7.49;75.75;101305.06;5092878;28;20111;-88
2022/03/29 03:49:14;;;;;;;24.13;18.10;;;;;;;7.44;77.42;101315.56;5076952;28;20028;-88
2022/03/29 03:51:40;;;;;;;25.50;19.63;;;;;;;7.40;77.07;101309.69;5093556;28;20034;-88
2022/03/29 03:54:05;;;;;;;23.80;18.20;;;;;;;7.31;77.21;101314.34;5110073;28;20035;-88
2022/03/29 03:56:34;;;;;;;22.40;16.90;;;;;;;7.26;77.69;101314.03;5093330;28;20535;-88
2022/03/29 03:58:59;;;;;;;21.40;15.80;;;;;;;7.22;78.22;101307.34;5093114;28;20024;-88
2022/03/29 04:01:25;;;;;;;22.67;16.85;;;;;;;7.19;77.69;101308.53;5093106;28;20028;-88
2022/03/29 04:03:51;;;;;;;22.85;17.88;;;;;;;7.19;77.57;101308.53;5076025;28;20029;-88
2022/03/29 04:06:16;;;;;;;23.13;17.50;;;;;;;7.18;77.89;101297.91;5093502;28;20059;-88
2022/03/29 04:08:42;;;;;;;24.98;18.40;;;;;;;7.18;77.61;101287.97;5075900;28;20063;-88
2022/03/29 04:11:14;;;;;;;24.15;18.52;;;;;;;7.16;77.18;101286.44;5093122;28;20107;-89
2022/03/29 04:13:39;;;;;;;25.30;19.87;;;;;;;7.13;77.02;101286.81;5095342;28;20024;-89
2022/03/29 04:16:05;;;;;;;22.95;17.90;;;;;;;7.08;77.41;101284.66;5080189;28;20385;-89
2022/03/29 04:18:30;;;;;;;24.08;18.67;;;;;;;7.05;77.73;101281.50;5097481;28;20454;-89
2022/03/29 04:21:01;;;;;;;27.02;20.48;;;;;;;7.02;78.34;101285.41;5096774;28;20070;-88
2022/03/29 04:23:27;;;;;;;24.10;18.92;;;;;;;6.96;78.62;101278.03;5097086;28;20413;-89
2022/03/29 04:25:52;;;;;;;24.13;18.95;;;;;;;6.89;79.32;101272.50;5113899;28;20142;-89
2022/03/29 04:28:19;;;;;;;24.10;18.90;;;;;;;6.83;78.84;101271.38;5097815;28;20084;-89
2022/03/29 04:30:44;;;;;;;24.25;19.48;;;;;;;6.79;78.71;101259.28;5096912;28;20089;-89
2022/03/29 04:33:10;;;;;;;23.38;18.42;;;;;;;6.74;78.77;101264.38;5063429;28;20020;-94
2022/03/29 04:35:35;;;;;;;25.42;18.73;;;;;;;6.69;78.57;101258.69;5097103;28;20046;-94
2022/03/29 04:38:00;;;;;;;24.23;19.92;;;;;;;6.66;79.34;101256.34;5113991;28;20016;-94
2022/03/29 04:40:29;;;;;;;23.85;18.67;;;;;;;6.64;79.67;101253.84;5096870;28;20081;-95
2022/03/29 04:42:55;;;;;;;24.30;19.00;;;;;;;6.63;80.75;101251.31;5114280;28;20047;-92
2022/03/29 04:45:20;;;;;;;25.15;20.02;;;;;;;6.64;79.78;101256.53;5080042;28;20059;-90
2022/03/29 04:47:47;;;;;;;23.80;19.00;;;;;;;6.62;80.72;101263.13;5097588;28;20028;-89
2022/03/29 04:50:14;;;;;;;25.63;20.20;;;;;;;6.60;80.28;101257.91;5096132;28;20460;-90
2022/03/29 04:52:44;;;;;;;27.10;21.25;;;;;;;6.64;79.66;101252.97;5079643;28;20020;-90
2022/03/29 04:55:11;;;;;;;27.02;20.98;;;;;;;6.64;79.92;101251.13;5113140;28;20418;-90
2022/03/29 04:57:37;;;;;;;25.52;20.65;;;;;;;6.68;79.95;101249.75;5096482;28;20027;-90
2022/03/29 05:00:04;;;;;;;27.33;22.52;;;;;;;6.73;79.93;101241.13;5097278;28;20089;-89
2022/03/29 05:02:31;;;;;;;27.98;22.40;;;;;;;6.74;79.57;101253.59;5113692;28;20016;-89
2022/03/29 05:04:56;;;;;;;27.92;22.90;;;;;;;6.72;79.77;101247.53;5096737;28;20031;-90
2022/03/29 05:07:24;;;;;;;31.40;23.60;;;;;;;6.72;79.86;101249.38;5095629;28;20032;-89
2022/03/29 05:09:50;;;;;;;28.15;22.75;;;;;;;6.70;80.01;101251.44;5062733;28;20044;-90
2022/03/29 05:12:16;;;;;;;29.25;23.38;;;;;;;6.73;80.80;101241.13;5096484;28;20109;-90
2022/03/29 05:14:43;;;;;;;30.08;24.85;;;;;;;6.76;79.54;101243.47;5079414;28;20100;-90
2022/03/29 05:17:08;;;;;;;29.42;24.20;;;;;;;6.73;80.34;101242.97;5096149;28;20034;-89
2022/03/29 05:19:33;;;;;;;29.73;24.08;;;;;;;6.73;80.09;101241.13;5095892;28;20019;-88
2022/03/29 05:21:59;;;;;;;27.90;22.98;;;;;;;6.74;80.40;101245.50;5112854;28;20035;-88
2022/03/29 05:24:24;;;;;;;28.70;24.25;;;;;;;6.74;80.47;101245.50;5078776;28;20020;-89
2022/03/29 05:26:50;;;;;;;28.27;23.17;;;;;;;6.72;79.55;101239.44;5095559;28;20363;-88
2022/03/29 05:29:18;;;;;;;29.27;23.90;;;;;;;6.74;80.12;101234.69;5096228;28;20028;-90
2022/03/29 05:31:43;;;;;;;29.42;23.35;;;;;;;6.72;80.60;101244.84;5095755;28;20448;-89
2022/03/29 05:34:09;;;;;;;30.92;24.25;;;;;;;6.71;79.30;101240.47;5096128;28;20119;-92
2022/03/29 05:36:35;;;;;;;28.60;23.70;;;;;;;6.70;80.31;101238.78;5095758;28;20371;-91
2022/03/29 05:39:03;;;;;;;29.17;23.58;;;;;;;6.70;81.01;101238.78;5113026;28;20433;-91
2022/03/29 05:41:29;;;;;;;28.08;22.90;;;;;;;6.68;79.73;101241.66;5095854;28;20444;-91
2022/03/29 05:43:55;;;;;;;29.20;23.52;;;;;;;6.71;80.21;101242.31;5095762;28;20042;-91
2022/03/29 05:49:08;;;;;;;35.40;27.23;;;;;;;6.83;80.13;101241.69;5096394;28;20051;-91
2022/03/29 05:51:33;;;;;;;31.45;24.92;;;;;;;6.91;80.30;101235.41;5096781;28;20024;-89
2022/03/29 05:54:04;;;;;;;29.92;24.30;;;;;;;6.96;79.71;101237.56;5095944;28;20359;-89
2022/03/29 05:56:32;;;;;;;32.85;25.42;;;;;;;7.00;79.82;101242.41;5096310;28;20027;-90
2022/03/29 05:59:01;;;;;;;31.15;24.17;;;;;;;7.05;78.83;101241.03;5095092;28;20390;-90
2022/03/29 06:01:26;;;;;;;31.15;23.83;;;;;;;7.07;79.91;101237.16;5112890;28;20325;-90
2022/03/29 06:03:52;;;;;;;30.92;24.15;;;;;;;7.05;78.06;101238.34;5094956;28;20026;-90
2022/03/29 06:06:17;;;;;;;33.15;24.95;;;;;;;7.06;79.63;101234.59;5078048;28;20024;-90
2022/03/29 06:08:43;;;;;;;31.45;24.90;;;;;;;7.14;79.29;101237.22;5079371;28;20047;-90
2022/03/29 06:11:09;;;;;;;31.83;24.15;;;;;;;7.20;79.11;101236.50;5093782;28;20051;-90
2022/03/29 06:13:34;;;;;;;31.98;24.55;;;;;;;7.29;78.31;101232.72;5095799;28;20156;-89
2022/03/29 06:16:00;;;;;;;36.75;27.77;;;;;;;7.34;78.50;101232.97;5094054;28;20089;-90
2022/03/29 06:18:28;;;;;;;39.78;29.85;;;;;;;7.43;78.62;101227.50;5111231;28;20028;-90
2022/03/29 06:20:54;;;;;;;38.05;29.50;;;;;;;7.43;79.35;101230.22;5094188;28;20030;-90
2022/03/29 06:23:19;;;;;;;36.30;27.65;;;;;;;7.31;79.04;101229.84;5094106;28;20020;-90
2022/03/29 06:25:46;;;;;;;37.80;28.15;;;;;;;7.29;79.07;101232.72;5095731;28;20028;-90
2022/03/29 06:28:13;;;;;;;41.65;30.50;;;;;;;7.36;80.22;101232.78;5094641;28;20463;-90
2022/03/29 06:30:39;;;;;;;36.60;26.95;;;;;;;7.38;79.65;101225.34;5110779;28;20028;-89
2022/03/29 06:33:05;;;;;;;37.08;28.58;;;;;;;7.45;78.38;101222.75;5093512;28;20065;-89
2022/03/29 06:35:31;;;;;;;41.20;30.35;;;;;;;7.51;79.49;101230.97;5092641;28;20035;-88
2022/03/29 06:37:59;;;;;;;37.83;27.80;;;;;;;7.49;79.48;101227.59;5093005;28;20129;-88
2022/03/29 06:40:26;;;;;;;37.00;27.42;;;;;;;7.52;79.41;101229.09;5093917;28;20111;-88
2022/03/29 06:42:55;;;;;;;37.35;27.40;;;;;;;7.63;78.19;101233.19;5094829;28;20024;-88
2022/03/29 06:45:21;;;;;;;39.22;29.05;;;;;;;7.73;78.76;101229.16;5094955;28;20024;-88
2022/03/29 06:47:47;;;;;;;39.15;28.45;;;;;;;7.82;78.87;101229.06;5094599;28;20042;-88
2022/03/29 06:50:14;;;;;;;33.10;25.33;;;;;;;7.85;78.58;101237.66;5093455;28;20027;-88
2022/03/29 06:52:41;;;;;;;33.67;24.75;;;;;;;7.85;78.33;101229.56;5110323;28;20035;-88
2022/03/29 06:55:11;;;;;;;36.88;26.50;;;;;;;7.89;78.18;101221.91;5093025;28;20051;-88
2022/03/29 06:57:37;;;;;;;39.45;28.52;;;;;;;7.98;77.30;101226.16;5110096;28;20452;-88
2022/03/29 07:00:05;;;;;;;40.92;29.90;;;;;;;8.06;76.98;101225.22;5076492;28;20116;-88
2022/03/29 07:02:30;;;;;;;43.22;30.52;;;;;;;8.11;77.18;101227.38;5110649;28;20082;-88
2022/03/29 07:04:56;;;;;;;41.42;30.90;;;;;;;8.12;77.50;101219.06;5060917;28;20135;-88
2022/03/29 07:07:21;;;;;;;40.22;29.02;;;;;;;8.05;77.53;101220.84;5093665;28;20047;-88
2022/03/29 07:12:31;;;;;;;38.80;27.38;;;;;;;8.04;77.09;101225.41;5094782;28;20065;-88
2022/03/29 07:15:00;;;;;;;39.40;27.77;;;;;;;8.11;76.74;101219.25;5093468;28;20024;-88
2022/03/29 07:17:26;;;;;;;36.22;25.75;;;;;;;8.16;77.40;101216.81;5093111;28;20123;-88
2022/03/29 07:19:52;;;;;;;38.13;27.42;;;;;;;8.19;77.15;101216.44;5110109;28;20462;-88
2022/03/29 07:22:18;;;;;;;36.03;25.92;;;;;;;8.22;77.30;101213.34;5092981;28;20042;-88
2022/03/29 07:24:44;;;;;;;40.45;29.90;;;;;;;8.26;76.60;101223.56;5094669;28;20027;-88
2022/03/29 07:27:10;;;;;;;43.17;31.17;;;;;;;8.28;77.31;101227.97;5092657;28;20027;-88
2022/03/29 07:29:36;;;;;;;42.17;30.50;;;;;;;8.27;76.52;101227.13;5092782;28;20036;-89
2022/03/29 07:32:02;;;;;;;41.70;28.73;;;;;;;8.31;76.59;101232.97;5092966;28;20034;-88
2022/03/29 07:34:29;;;;;;;44.05;30.75;;;;;;;8.36;76.60;101233.25;5092771;28;20016;-88
2022/03/29 07:36:56;;;;;;;46.17;32.42;;;;;;;8.36;76.69;101219.75;5092897;28;20039;-88
2022/03/29 07:39:22;;;;;;;48.33;33.05;;;;;;;8.39;76.59;101228.28;5076194;28;20032;-88
2022/03/29 07:41:47;;;;;;;44.00;29.98;;;;;;;8.44;76.51;101233.16;5093688;28;20027;-88
2022/03/29 07:44:13;;;;;;;43.80;30.02;;;;;;;8.49;76.61;101236.13;5093937;28;20028;-88
2022/03/29 07:46:39;;;;;;;41.78;28.88;;;;;;;8.47;76.98;101243.59;5092819;28;20024;-88
2022/03/29 07:49:05;;;;;;;40.00;27.30;;;;;;;8.49;76.77;101241.53;5093271;28;20024;-88
2022/03/29 07:51:30;;;;;;;38.05;26.08;;;;;;;8.54;76.46;101259.91;5092861;28;20351;-88
2022/03/29 07:53:56;;;;;;;37.85;26.80;;;;;;;8.58;76.59;101258.50;5092601;28;20446;-88
2022/03/29 07:56:22;;;;;;;43.10;29.60;;;;;;;8.59;75.87;101252.88;5092311;28;20446;-88
2022/03/29 07:58:47;;;;;;;41.00;28.30;;;;;;;8.63;75.95;101252.50;5092425;28;20058;-88
2022/03/29 08:01:12;;;;;;;40.83;28.52;;;;;;;8.75;74.87;101250.94;5109927;28;20356;-88
2022/03/29 08:03:38;;;;;;;46.10;29.85;;;;;;;8.75;75.51;101250.94;5093828;28;20024;-87
2022/03/29 08:06:05;;;;;;;40.40;28.98;;;;;;;8.80;75.32;101242.25;5092689;28;20416;-88
2022/03/29 08:08:32;;;;;;;37.97;25.80;;;;;;;8.91;74.25;101244.44;5109036;28;20097;-88
2022/03/29 08:10:58;;;;;;;44.58;28.30;;;;;;;9.03;74.49;101242.88;5092469;28;20031;-89
2022/03/29 08:13:24;;;;;;;46.80;30.42;;;;;;;9.05;74.67;101245.38;5075939;28;20491;-88
2022/03/29 08:15:56;;;;;;;43.88;29.15;;;;;;;9.12;74.64;101244.41;5109121;28;20077;-88
2022/03/29 08:18:22;;;;;;;44.28;30.00;;;;;;;9.19;74.24;101232.81;5109893;28;20444;-88
2022/03/29 08:20:48;;;;;;;44.55;28.83;;;;;;;9.23;74.58;101234.09;5093454;28;20165;-88
2022/03/29 08:23:14;;;;;;;43.90;28.25;;;;;;;9.27;74.81;101225.38;5093548;28;20027;-87
2022/03/29 08:25:42;;;;;;;38.85;26.10;;;;;;;9.43;74.17;101226.09;5092502;28;20028;-88
2022/03/29 08:28:08;;;;;;;37.22;24.65;;;;;;;9.57;72.44;101229.72;5109344;28;20093;-88
2022/03/29 08:30:35;;;;;;;51.30;31.33;;;;;;;9.66;72.86;101229.34;5092613;28;20448;-88
2022/03/29 08:33:02;;;;;;;44.85;29.02;;;;;;;9.68;72.65;101234.56;5109365;28;20032;-88
2022/03/29 08:35:28;;;;;;;41.85;26.27;;;;;;;9.70;72.42;101228.94;5093317;28;20070;-88
2022/03/29 08:37:57;;;;;;;38.10;25.17;;;;;;;9.74;72.55;101236.47;5093033;28;20031;-88
2022/03/29 08:40:25;;;;;;;48.70;30.50;;;;;;;9.82;72.20;101233.59;5091989;28;20097;-88
2022/03/29 08:42:54;;;;;;;42.83;28.35;;;;;;;9.87;72.05;101224.03;5091834;28;20055;-88
2022/03/29 08:45:25;;;;;;;40.22;26.55;;;;;;;9.93;71.49;101229.47;5092458;28;20024;-89
2022/03/29 08:47:53;;;;;;;44.92;29.33;;;;;;;9.93;71.34;101234.91;5094074;28;20020;-89
2022/03/29 08:50:19;;;;;;;42.80;27.23;;;;;;;9.90;71.49;101243.44;5093054;28;20352;-88
2022/03/29 08:52:46;;;;;;;40.08;25.25;;;;;;;9.92;71.40;101245.94;5093490;28;20032;-89
2022/03/29 08:55:11;;;;;;;43.85;27.98;;;;;;;9.92;71.31;101244.09;5093573;28;20089;-88
2022/03/29 08:57:38;;;;;;;41.40;26.85;;;;;;;9.94;72.03;101231.16;5108978;28;20032;-88
2022/03/29 09:00:06;;;;;;;40.65;25.95;;;;;;;10.01;70.97;101236.63;5094885;28;20073;-88
2022/03/29 09:02:38;;;;;;;41.65;27.77;;;;;;;10.14;70.56;101227.69;5095404;28;20042;-88
2022/03/29 09:05:12;;;;;;;45.35;28.65;;;;;;;10.22;70.60;101235.66;5112588;28;20031;-88
2022/03/29 09:07:54;;;;;;;45.42;28.95;;;;;;;10.32;70.33;101232.56;5113311;28;20023;-88
2022/03/29 09:10:48;;;;;;;47.00;29.83;;;;;;;10.36;69.29;101233.84;5097077;28;20044;-88
2022/03/29 09:13:28;;;;;;;50.95;31.77;;;;;;;10.43;70.01;101223.00;5095276;28;20043;-88
2022/03/29 09:15:55;;;;;;;42.97;28.48;;;;;;;10.48;69.69;101221.34;5095088;28;20356;-88
2022/03/29 09:18:21;;;;;;;42.55;27.55;;;;;;;10.53;69.86;101218.84;5095494;28;20405;-88
2022/03/29 09:21:09;;;;;;;39.75;24.85;;;;;;;10.50;69.14;101215.72;5095525;28;20039;-88
2022/03/29 09:23:35;;;;;;;41.80;26.77;;;;;;;10.45;69.56;101210.06;5095067;28;20062;-88
2022/03/29 09:26:01;;;;;;;41.85;25.58;;;;;;;10.41;69.48;101223.22;5112512;28;20046;-88
2022/03/29 09:28:33;;;;;;;41.72;26.88;;;;;;;10.34;69.33;101220.47;5096025;28;20016;-88
2022/03/29 09:31:01;;;;;;;43.53;26.95;;;;;;;10.24;70.12;101219.16;5095221;28;20024;-88
2022/03/29 09:33:32;;;;;;;44.03;27.75;;;;;;;10.25;70.00;101220.84;5094856;28;20375;-88
2022/03/29 09:36:12;;;;;;;44.38;25.95;;;;;;;10.34;69.84;101225.91;5096348;28;20112;-89
2022/03/29 09:38:41;;;;;;;44.35;26.85;;;;;;;10.47;69.73;101225.09;5096294;28;20077;-88
2022/03/29 09:41:28;;;;;;;44.97;27.88;;;;;;;10.64;68.82;101208.44;5094584;28;20499;-88
2022/03/29 09:44:09;;;;;;;45.15;28.27;;;;;;;10.78;68.71;101210.13;5112564;28;20020;-88
2022/03/29 09:47:04;;;;;;;47.95;29.70;;;;;;;10.89;68.34;101208.66;5111390;28;20031;-88
2022/03/29 09:49:47;;;;;;;50.78;31.10;;;;;;;10.91;68.36;101194.88;5094589;28;20057;-88
2022/03/29 09:52:16;;;;;;;46.03;28.92;;;;;;;10.88;68.35;101196.16;5111606;28;20032;-88
2022/03/29 09:55:02;;;;;;;46.72;27.42;;;;;;;10.94;68.18;101187.16;5111186;28;20100;-88
2022/03/29 09:57:41;;;;;;;52.45;31.42;;;;;;;11.04;67.45;101187.56;5094517;28;20024;-88
2022/03/29 10:00:09;;;;;;;49.92;30.83;;;;;;;11.09;67.42;101186.94;5095683;28;20032;-88
2022/03/29 10:02:36;;;;;;;46.35;28.95;;;;;;;11.08;67.58;101182.53;5094466;28;20569;-88
2022/03/29 10:05:03;;;;;;;62.40;36.45;;;;;;;11.11;67.61;101182.13;5095106;28;20028;-88
2022/03/29 10:07:34;;;;;;;51.05;31.90;;;;;;;11.13;67.69;101171.03;5095223;28;20028;-88
2022/03/29 10:10:00;;;;;;;48.30;29.83;;;;;;;11.27;67.11;101178.13;5109950;28;20066;-88
2022/03/29 10:12:25;;;;;;;43.30;28.27;;;;;;;11.36;66.77;101165.16;5110336;28;20444;-88
2022/03/29 10:14:54;;;;;;;40.30;27.02;;;;;;;11.37;66.85;101164.94;5095305;28;20532;-88
2022/03/29 10:17:20;;;;;;;44.70;27.92;;;;;;;11.49;66.38;101172.44;5093875;28;20115;-88
2022/03/29 10:19:47;;;;;;;44.78;27.88;;;;;;;11.59;65.98;101173.66;5110736;28;20028;-87
2022/03/29 10:22:16;;;;;;;51.55;30.63;;;;;;;11.64;65.81;101162.13;5094819;28;20028;-89
2022/03/29 10:24:41;;;;;;;52.97;33.67;;;;;;;11.61;65.57;101156.31;5095326;28;20028;-89
2022/03/29 10:27:09;;;;;;;46.80;31.00;;;;;;;11.72;64.97;101151.03;5110582;28;20375;-88
2022/03/29 10:29:35;;;;;;;49.42;31.95;;;;;;;11.80;65.01;101163.53;5093660;28;20016;-88
2022/03/29 10:32:07;;;;;;;45.80;30.20;;;;;;;11.79;64.85;101153.72;5093836;28;20024;-88
2022/03/29 10:35:07;;;;;;;43.83;29.30;;;;;;;11.97;64.27;101155.75;5093857;28;20090;-88
2022/03/29 10:37:55;;;;;;;42.38;29.13;;;;;;;11.87;64.58;101163.50;5090438;28;20040;-88
2022/03/29 10:40:39;;;;;;;41.88;29.08;;;;;;;12.04;64.25;101158.44;5093636;28;20026;-88
2022/03/29 10:43:28;;;;;;;41.78;28.63;;;;;;;12.31;63.75;101152.84;5096435;28;20027;-87
2022/03/29 10:45:54;;;;;;;42.22;28.63;;;;;;;12.45;62.82;101152.53;5095202;28;20020;-87
2022/03/29 10:48:19;;;;;;;37.25;26.65;;;;;;;12.66;62.60;101136.88;5095139;28;20043;-87
2022/03/29 10:50:53;;;;;;;35.38;24.73;;;;;;;12.80;62.31;101141.16;5094906;28;20028;-88
2022/03/29 10:53:28;;;;;;;36.80;26.25;;;;;;;12.94;61.41;101135.59;5096801;28;20020;-88
2022/03/29 10:56:23;;;;;;;31.80;23.55;;;;;;;12.98;61.76;101134.91;5111303;28;20090;-89
2022/03/29 10:59:04;;;;;;;31.67;23.17;;;;;;;13.09;61.46;101133.31;5102891;28;20039;-88
2022/03/29 11:01:40;;;;;;;29.27;21.85;;;;;;;13.27;61.10;101131.69;5112897;28;20055;-89
2022/03/29 11:04:12;;;;;;;31.75;22.35;;;;;;;13.43;60.25;101125.66;5096512;28;20024;-88
2022/03/29 11:07:06;;;;;;;31.00;22.77;;;;;;;13.71;60.14;101127.00;5096384;28;20020;-89
2022/03/29 11:09:41;;;;;;;32.63;24.23;;;;;;;14.15;58.64;101114.00;5111611;28;20126;-88
2022/03/29 11:12:35;;;;;;;29.13;21.80;;;;;;;14.41;58.25;101113.81;5095188;28;20024;-89
2022/03/29 11:15:01;;;;;;;27.58;21.15;;;;;;;14.53;57.14;101115.50;5112743;28;20028;-89
2022/03/29 11:17:29;;;;;;;28.25;21.23;;;;;;;14.87;56.97;101112.25;5078546;28;20073;-88
2022/03/29 11:19:56;;;;;;;27.63;21.25;;;;;;;15.01;55.73;101108.19;5112135;28;20060;-88
2022/03/29 11:22:22;;;;;;;31.50;23.10;;;;;;;15.06;55.76;101108.31;5096081;28;20031;-89
2022/03/29 11:24:52;;;;;;;27.38;21.25;;;;;;;15.33;55.05;101115.19;5112339;28;20122;-87
2022/03/29 11:27:26;;;;;;;28.33;21.75;;;;;;;15.69;54.19;101094.84;5097674;28;20034;-87
2022/03/29 11:29:55;;;;;;;31.88;22.98;;;;;;;15.86;53.53;101105.06;5112965;28;20097;-87